This is the latest recevied weather packets stored in our database for station/object LRTM. If no packets are shown the sender has not sent any weather packets the latest 10 day(s).
| Time | Temp. | Humidity | Pressure | Rain* | Wind** | Luminosity | Snow |
|---|---|---|---|---|---|---|---|
| 1777236507 | 6.11° C | 49% | 1021 hPa | - | - | - | - |
| 1777235606 | 6.11° C | 49% | 1021 hPa | - | - | - | - |
| 1777234706 | 5° C | 53% | 1021 hPa | - | - | - | - |
| 1777233806 | 5° C | 53% | 1021 hPa | - | - | - | - |
| 1777232917 | 7.78° C | 40% | 1020 hPa | - | - | - | - |
| 1777232006 | 7.78° C | 40% | 1020 hPa | - | - | - | - |
| 1777231106 | 8.89° C | 37% | 1020 hPa | - | - | - | - |
| 1777230206 | 8.89° C | 37% | 1020 hPa | - | - | - | - |
| 1777229306 | 10° C | 32% | 1019 hPa | - | - | - | - |
| 1777228407 | 10° C | 32% | 1019 hPa | - | - | - | - |
| 1777227523 | 10° C | 32% | 1019 hPa | - | - | - | - |
| 1777226606 | 10° C | 32% | 1019 hPa | - | - | - | - |
| 1777225706 | 11.11° C | 30% | 1018 hPa | - | - | - | - |
| 1777224806 | 11.11° C | 30% | 1018 hPa | - | - | - | - |
| 1777223907 | 12.22° C | 26% | 1017 hPa | - | - | - | - |
| 1777223006 | 12.22° C | 26% | 1017 hPa | - | - | - | - |
| 1777222103 | 12.78° C | 28% | 1016 hPa | - | - | - | - |
| 1777221203 | 12.78° C | 28% | 1016 hPa | - | - | - | - |
| 1777220303 | 13.89° C | 27% | 1016 hPa | - | - | - | - |
| 1777219407 | 13.89° C | 27% | 1016 hPa | - | - | - | - |
| 1777218500 | 15° C | 27% | 1015 hPa | - | - | - | - |
| 1777217607 | 15° C | 27% | 1015 hPa | - | - | - | - |
| 1777216703 | 16.11° C | 29% | 1014 hPa | - | - | - | - |
| 1777215807 | 16.11° C | 29% | 1014 hPa | - | - | - | - |
| 1777214898 | 16.11° C | 29% | 1014 hPa | - | - | - | - |
* Rain since midnight (hover to see other rain measurements)
** Current wind speed in m/s (hover to see current wind gust speed)